KIMS

Details ICAO KIMS
Name Madison Muni
Region United States
Timezone America/Indiana/Indianapolis (UTC-5.0)
Plans Departing 0
Arriving 6
Stats Elevation 817 ft / 249 m (AMSL)
Location 38.759839° -85.464754°
Runways 1
Magnetic Variation 5.100° W
Sunrise 2017-12-17 12:55:43 UTC / 2017-12-17 07:55:43 Local
Sunset 2017-12-17 22:23:13 UTC / 2017-12-17 17:23:13 Local
Advertisement - Login to hide

Runways

ID Width Length Bearing (true) Bearing (mag) Surface Threshold Offset Overrun Length
03 75 ft / 23 m 4,403 ft / 1,342 m 31.65° 36.75° Asphalt 0 ft / 0 m 0 ft / 0 m
21 75 ft / 23 m 4,403 ft / 1,342 m 211.65° 216.75° Asphalt 0 ft / 0 m 0 ft / 0 m

Map

Weather


0- 5 10 15 20 25 30 35+ Temperature / ° C

Clouds and Precipitation
Forecast for 2017-12-17 12:00 UTC. Updated an hour ago

Ground ~20,000 ft ~40,000 ft Winds

METAR

KIMS 171035Z AUTO 00000KT 10SM CLR 03/M01 A3016 RMK AO1

TAF

Not found

Frequencies

Recorded 119.17 MHz AWOS 3
Approach 123.67 MHz LOUISVILLE APP/DEP
Unicom 122.80 MHz CTAF/UNICOM
Approach 132.07 MHz LOUISVILLE APP/DEP
Warning: Do not use this data for real-world aviation or navigation. No guarantee of current accuracy is given.